首页
METAR-TAF:

METAR-TAF

机场 :

巴統國際機場

巴统, 格鲁吉亚

纬度: 41-36-37N, 经度: 041-35-58E, 海拔: 32米

当前天气观测

该预报发布于5分钟前的08:30 UTC
风速14节,风向西转西南
温度 12°C
湿度 88%
气压 1011 hPa
能见度10公里或以上
多云层高于11000英尺

METAR: UGSB 030830Z 24014KT 9999 BKN110 12/10 Q1011 NOSIG

时间: 12:35 (08:35 UTC)

预报

该预报发布于3小时和35分钟前的05:00 UTC
预报有效从03日的 06点(UTC)到 04日的 06点(UTC)
风速10节,风向东南
能见度10公里或以上
多云层高于10000英尺
成为
从 03日的 08点(UTC)到 03日的 10点(UTC)
风速10节,风向西南
散云层高于2000英尺
多云层高于5000英尺
短暂存在
从 03日的 15点(UTC)到 03日的 24点(UTC)
风速17节,风向西南
能見度: 5000
散云层高于1000英尺
多云层高于2500英尺
短暂存在
从 04日的 00点(UTC)到 04日的 06点(UTC)
能見度: 4000
散云层高于1000英尺
多云层高于2000英尺

TAF: UGSB 030500Z 0306/0406 13010KT 9999 BKN100 TX15/0311Z TN07/0400Z BECMG 0308/0310 23010KT SCT020 BKN050 TEMPO 0315/0324 23017KT 5000 RA SCT010 BKN025 TEMPO 0400/0406 4000 RA SCT010 BKN020

超过4000个机场的气象观测和天气预报(METAR&TAF报告)。

可查询的气象台以黄色和红色小点在地图上表示。

将鼠标移到小点上方,可查看气象台名称。

然后点击查看天气观测和预报。

如需切换地图:点击带黑十字的绿色按钮放大地图;点击带横线的绿色按钮缩小地图;或者点击绿色箭头查看邻近地区的地图。


METAR-TAF: